createdAt,value
2017-10-04T00:00:13.393Z,0.00
2017-10-04T00:01:13.385Z,0.00
2017-10-04T00:02:13.374Z,0.00
2017-10-04T00:03:13.365Z,0.00
2017-10-04T00:04:13.356Z,0.00
2017-10-04T00:05:13.346Z,0.00
2017-10-04T00:06:13.338Z,0.00
2017-10-04T00:07:13.330Z,0.00
2017-10-04T00:08:13.320Z,0.00
2017-10-04T00:09:13.309Z,0.00
2017-10-04T00:10:13.303Z,0.00
2017-10-04T00:11:13.297Z,0.00
2017-10-04T00:12:13.286Z,0.00
2017-10-04T00:13:13.276Z,0.00
2017-10-04T00:14:13.264Z,0.00
2017-10-04T00:15:13.254Z,0.00
2017-10-04T00:16:13.245Z,0.00
2017-10-04T00:17:13.250Z,0.00
2017-10-04T00:18:13.251Z,0.00
2017-10-04T00:19:13.218Z,0.00
2017-10-04T00:20:13.209Z,0.00
2017-10-04T00:21:13.199Z,0.00
2017-10-04T00:22:13.189Z,0.00
2017-10-04T00:23:13.180Z,0.00
2017-10-04T00:24:13.187Z,0.00
2017-10-04T00:25:13.161Z,0.00
2017-10-04T00:26:13.152Z,0.00
2017-10-04T00:27:13.147Z,0.00
2017-10-04T00:28:13.135Z,0.00
2017-10-04T00:29:13.125Z,0.00
2017-10-04T00:30:13.114Z,0.00
2017-10-04T00:31:13.116Z,0.00
2017-10-04T00:32:13.100Z,0.00
2017-10-04T00:33:13.092Z,0.00
2017-10-04T00:34:13.080Z,0.00
2017-10-04T00:35:13.071Z,0.00
2017-10-04T00:36:13.061Z,0.00
2017-10-04T00:37:13.052Z,0.00
2017-10-04T00:38:13.044Z,0.00
2017-10-04T00:39:13.035Z,0.00
2017-10-04T00:40:13.026Z,0.00
2017-10-04T00:41:13.021Z,0.00
2017-10-04T00:42:13.007Z,0.00
2017-10-04T00:43:13.005Z,0.00
2017-10-04T00:44:12.988Z,0.00
2017-10-04T00:45:12.982Z,0.00
2017-10-04T00:46:12.969Z,0.00
2017-10-04T00:47:12.959Z,0.00
2017-10-04T00:48:12.952Z,0.00
2017-10-04T00:49:12.943Z,0.00
2017-10-04T00:50:12.932Z,0.00
2017-10-04T00:51:12.923Z,0.00
2017-10-04T00:52:12.914Z,0.00
2017-10-04T00:53:12.907Z,0.00
2017-10-04T00:54:12.895Z,0.00
2017-10-04T00:55:12.890Z,0.00
2017-10-04T00:56:12.877Z,0.00
2017-10-04T00:57:12.868Z,0.00
2017-10-04T00:58:12.858Z,0.00
2017-10-04T00:59:12.856Z,0.00
2017-10-04T01:00:12.840Z,0.00
2017-10-04T01:01:12.830Z,0.00
2017-10-04T01:02:12.820Z,0.00
2017-10-04T01:03:12.812Z,0.00
2017-10-04T01:04:12.804Z,0.00
2017-10-04T01:05:12.793Z,0.00
2017-10-04T01:06:12.783Z,0.00
2017-10-04T01:07:12.775Z,0.00
2017-10-04T01:08:12.772Z,0.00
2017-10-04T01:09:12.757Z,0.00
2017-10-04T01:10:12.747Z,0.00
2017-10-04T01:11:12.745Z,0.00
2017-10-04T01:12:12.732Z,0.00
2017-10-04T01:13:12.721Z,0.00
2017-10-04T01:14:12.715Z,0.00
2017-10-04T01:15:12.702Z,0.00
2017-10-04T01:16:12.693Z,0.00
2017-10-04T01:17:12.683Z,0.00
2017-10-04T01:18:12.676Z,0.00
2017-10-04T01:19:12.666Z,0.00
2017-10-04T01:20:12.666Z,0.00
2017-10-04T01:21:12.646Z,0.00
2017-10-04T01:22:12.638Z,0.00
2017-10-04T01:23:12.628Z,0.00
2017-10-04T01:24:12.623Z,0.00
2017-10-04T01:25:12.611Z,0.00
2017-10-04T01:26:12.600Z,0.00
2017-10-04T01:27:12.593Z,0.00
2017-10-04T01:28:12.583Z,0.00
2017-10-04T01:29:12.572Z,0.00
2017-10-04T01:30:12.574Z,0.00
2017-10-04T01:31:12.556Z,0.00
2017-10-04T01:32:12.546Z,0.00
2017-10-04T01:33:12.537Z,0.00
2017-10-04T01:34:12.530Z,0.00
2017-10-04T01:35:12.518Z,0.00
2017-10-04T01:36:12.509Z,0.00
2017-10-04T01:37:12.498Z,0.00
2017-10-04T01:38:12.490Z,0.00
2017-10-04T01:39:12.486Z,0.00
2017-10-04T01:40:12.474Z,0.00
2017-10-04T01:41:12.465Z,0.00
2017-10-04T01:42:12.452Z,0.00
2017-10-04T01:43:12.449Z,0.00
2017-10-04T01:44:12.435Z,0.00
2017-10-04T01:45:12.426Z,0.00
2017-10-04T01:46:12.416Z,0.00
2017-10-04T01:47:12.406Z,0.00
2017-10-04T01:48:12.397Z,0.00
2017-10-04T01:49:12.387Z,0.00
2017-10-04T01:50:12.386Z,0.00
2017-10-04T01:51:12.370Z,0.00
2017-10-04T01:52:12.360Z,0.00
2017-10-04T01:53:12.352Z,0.00
2017-10-04T01:54:12.343Z,0.00
2017-10-04T01:55:12.333Z,0.00
2017-10-04T01:56:12.326Z,0.00
2017-10-04T01:57:12.313Z,0.00
2017-10-04T01:58:12.307Z,0.00
2017-10-04T01:59:12.297Z,0.00
2017-10-04T02:00:12.288Z,0.00
2017-10-04T02:01:12.278Z,0.00
2017-10-04T02:02:12.268Z,0.00
2017-10-04T02:03:12.260Z,0.00
2017-10-04T02:04:12.263Z,0.00
2017-10-04T02:05:12.250Z,0.00
2017-10-04T02:06:12.255Z,0.00
2017-10-04T02:07:12.224Z,0.00
2017-10-04T02:08:12.218Z,0.00
2017-10-04T02:09:12.207Z,0.00
2017-10-04T02:10:12.195Z,0.00
2017-10-04T02:11:12.185Z,0.00
2017-10-04T02:12:12.176Z,0.00
2017-10-04T02:13:12.166Z,0.00
2017-10-04T02:14:12.156Z,0.00
2017-10-04T02:15:12.147Z,0.00
2017-10-04T02:16:12.140Z,0.00
2017-10-04T02:17:12.129Z,0.00
2017-10-04T02:18:12.121Z,0.00
2017-10-04T02:19:12.117Z,0.00
2017-10-04T02:20:12.102Z,0.00
2017-10-04T02:21:12.092Z,0.00
2017-10-04T02:22:12.084Z,0.00
2017-10-04T02:23:12.080Z,0.00
2017-10-04T02:24:12.065Z,0.00
2017-10-04T02:25:12.055Z,0.00
2017-10-04T02:26:12.046Z,0.00
2017-10-04T02:27:12.037Z,0.00
2017-10-04T02:28:12.037Z,0.00
2017-10-04T02:29:12.021Z,0.00
2017-10-04T02:30:12.012Z,0.00
2017-10-04T02:31:12.001Z,0.00
2017-10-04T02:32:11.997Z,0.00
2017-10-04T02:33:11.982Z,0.00
2017-10-04T02:34:11.972Z,0.00
2017-10-04T02:35:11.962Z,0.00
2017-10-04T02:36:11.953Z,0.00
2017-10-04T02:37:11.946Z,0.00
2017-10-04T02:38:11.935Z,0.00
2017-10-04T02:39:11.926Z,0.00
2017-10-04T02:40:11.917Z,0.00
2017-10-04T02:41:11.918Z,0.00
2017-10-04T02:42:11.898Z,0.00
2017-10-04T02:43:11.888Z,0.00
2017-10-04T02:44:11.882Z,0.00
2017-10-04T02:45:11.870Z,0.00
2017-10-04T02:46:11.859Z,0.00
2017-10-04T02:47:11.851Z,0.00
2017-10-04T02:48:11.845Z,0.00
2017-10-04T02:49:11.832Z,0.00
2017-10-04T02:50:11.823Z,0.00
2017-10-04T02:51:11.817Z,0.00
2017-10-04T02:52:11.804Z,0.00
2017-10-04T02:53:11.798Z,0.00
2017-10-04T02:54:11.790Z,0.00
2017-10-04T02:55:11.777Z,0.00
2017-10-04T02:56:11.769Z,0.00
2017-10-04T02:57:11.760Z,0.00
2017-10-04T02:58:11.750Z,0.00
2017-10-04T02:59:11.741Z,0.00
2017-10-04T03:00:11.730Z,0.00
2017-10-04T03:01:11.720Z,0.00
2017-10-04T03:02:11.711Z,0.00
2017-10-04T03:03:11.703Z,0.00
2017-10-04T03:04:11.692Z,0.00
2017-10-04T03:05:11.684Z,0.00
2017-10-04T03:06:11.692Z,0.00
2017-10-04T03:07:11.664Z,0.00
2017-10-04T03:08:11.659Z,0.00
2017-10-04T03:09:11.649Z,0.00
2017-10-04T03:10:11.641Z,0.00
2017-10-04T03:11:11.628Z,0.00
2017-10-04T03:12:11.619Z,0.00
2017-10-04T03:13:11.608Z,0.00
2017-10-04T03:14:11.600Z,0.00
2017-10-04T03:15:11.598Z,0.00
2017-10-04T03:16:11.582Z,0.00
2017-10-04T03:17:11.573Z,0.00
2017-10-04T03:18:11.563Z,0.00
2017-10-04T03:19:11.554Z,0.00
2017-10-04T03:20:11.543Z,0.00
2017-10-04T03:21:11.536Z,0.00
2017-10-04T03:22:11.526Z,0.00
2017-10-04T03:23:11.518Z,0.00
2017-10-04T03:24:11.511Z,0.00
2017-10-04T03:25:11.501Z,0.00
2017-10-04T03:26:11.490Z,0.00
2017-10-04T03:27:11.478Z,0.00
2017-10-04T03:28:11.471Z,0.00
2017-10-04T03:29:11.460Z,0.00
2017-10-04T03:30:11.459Z,0.00
2017-10-04T03:31:11.443Z,0.00
2017-10-04T03:32:11.457Z,0.00
2017-10-04T03:33:11.455Z,0.00
2017-10-04T03:34:11.415Z,0.00
2017-10-04T03:35:11.407Z,0.00
2017-10-04T03:36:11.395Z,0.00
2017-10-04T03:37:11.386Z,0.00
2017-10-04T03:38:11.377Z,0.00
2017-10-04T03:39:11.371Z,0.00
2017-10-04T03:40:11.359Z,0.00
2017-10-04T03:41:11.349Z,0.00
2017-10-04T03:42:11.340Z,0.00
2017-10-04T03:43:11.331Z,0.00
2017-10-04T03:44:11.324Z,0.00
2017-10-04T03:45:11.310Z,0.00
2017-10-04T03:46:11.301Z,0.00
2017-10-04T03:47:11.293Z,0.00
2017-10-04T03:48:11.288Z,0.00
2017-10-04T03:49:11.273Z,0.00
2017-10-04T03:50:11.269Z,0.00
2017-10-04T03:51:11.257Z,0.00
2017-10-04T03:52:11.246Z,0.00
2017-10-04T03:53:11.237Z,0.00
2017-10-04T03:54:11.227Z,0.00
2017-10-04T03:55:11.219Z,0.00
2017-10-04T03:56:11.210Z,0.00
2017-10-04T03:57:11.200Z,0.00
2017-10-04T03:58:11.192Z,0.00
2017-10-04T03:59:11.187Z,0.00
2017-10-04T04:00:11.171Z,0.00
2017-10-04T04:01:11.162Z,0.00
2017-10-04T04:02:11.158Z,0.00
2017-10-04T04:03:11.143Z,0.00
2017-10-04T04:04:11.134Z,0.00
2017-10-04T04:05:11.126Z,0.00
2017-10-04T04:06:11.118Z,0.00
2017-10-04T04:07:11.110Z,0.00
2017-10-04T04:08:11.098Z,0.00
2017-10-04T04:09:11.089Z,0.00
2017-10-04T04:10:11.080Z,0.00
2017-10-04T04:11:11.076Z,0.00
2017-10-04T04:12:11.061Z,0.00
2017-10-04T04:13:11.054Z,0.00
2017-10-04T04:14:11.041Z,0.00
2017-10-04T04:15:11.035Z,0.00
2017-10-04T04:16:11.024Z,0.00
2017-10-04T04:17:11.013Z,0.00
2017-10-04T04:18:11.003Z,0.00
2017-10-04T04:19:10.995Z,0.00
2017-10-04T04:20:10.984Z,0.00
2017-10-04T04:21:10.976Z,0.00
2017-10-04T04:22:10.968Z,0.00
2017-10-04T04:23:10.957Z,0.00
2017-10-04T04:24:10.947Z,0.00
2017-10-04T04:25:10.940Z,0.00
2017-10-04T04:26:10.928Z,0.00
2017-10-04T04:27:10.919Z,0.00
2017-10-04T04:28:10.924Z,0.00
2017-10-04T04:29:10.900Z,0.00
2017-10-04T04:30:10.891Z,0.00
2017-10-04T04:31:10.881Z,0.00
2017-10-04T04:32:10.873Z,0.00
2017-10-04T04:33:10.862Z,0.00
2017-10-04T04:34:10.852Z,0.00
2017-10-04T04:35:10.845Z,0.00
2017-10-04T04:36:10.834Z,0.00
2017-10-04T04:37:10.824Z,0.00
2017-10-04T04:38:10.816Z,0.00
2017-10-04T04:39:10.806Z,0.00
2017-10-04T04:40:10.797Z,0.00
2017-10-04T04:41:10.789Z,0.00
2017-10-04T04:42:10.782Z,0.00
2017-10-04T04:43:10.768Z,0.00
2017-10-04T04:44:10.762Z,0.00
2017-10-04T04:45:10.749Z,0.00
2017-10-04T04:46:10.738Z,0.00
2017-10-04T04:47:10.729Z,0.00
2017-10-04T04:48:10.722Z,0.00
2017-10-04T04:49:10.712Z,0.00
2017-10-04T04:50:10.705Z,0.00
2017-10-04T04:51:10.695Z,0.00
2017-10-04T04:52:10.685Z,0.00
2017-10-04T04:53:10.672Z,0.00
2017-10-04T04:54:10.666Z,0.00
2017-10-04T04:55:10.654Z,0.00
2017-10-04T04:56:10.650Z,0.00
2017-10-04T04:57:10.635Z,0.00
2017-10-04T04:58:10.626Z,0.00
2017-10-04T04:59:10.615Z,0.00
2017-10-04T05:00:10.607Z,0.00
2017-10-04T05:01:10.597Z,0.00
2017-10-04T05:02:10.590Z,0.00
2017-10-04T05:03:10.579Z,0.00
2017-10-04T05:04:10.569Z,0.00
2017-10-04T05:05:10.559Z,0.00
2017-10-04T05:06:10.551Z,4.00
2017-10-04T05:07:10.540Z,4.00
2017-10-04T05:08:10.530Z,0.00
2017-10-04T05:09:10.520Z,4.00
2017-10-04T05:10:10.513Z,4.00
2017-10-04T05:11:10.502Z,4.00
2017-10-04T05:12:10.493Z,8.00
2017-10-04T05:13:10.489Z,8.00
2017-10-04T05:14:10.501Z,12.00
2017-10-04T05:15:10.465Z,12.00
2017-10-04T05:16:10.456Z,16.00
2017-10-04T05:17:10.443Z,20.00
2017-10-04T05:18:10.436Z,24.00
2017-10-04T05:19:10.428Z,28.00
2017-10-04T05:20:10.417Z,36.00
2017-10-04T05:21:10.408Z,40.00
2017-10-04T05:22:10.396Z,44.00
2017-10-04T05:23:10.386Z,48.00
2017-10-04T05:24:10.378Z,52.00
2017-10-04T05:25:10.368Z,52.00
2017-10-04T05:26:10.359Z,56.00
2017-10-04T05:27:10.348Z,68.00
2017-10-04T05:28:10.340Z,80.00
2017-10-04T05:29:10.335Z,88.00
2017-10-04T05:30:10.319Z,92.00
2017-10-04T05:31:10.310Z,92.00
2017-10-04T05:32:10.301Z,100.00
2017-10-04T05:33:10.292Z,116.00
2017-10-04T05:34:10.282Z,120.00
2017-10-04T05:35:10.273Z,128.00
2017-10-04T05:36:10.262Z,132.00
2017-10-04T05:37:10.252Z,144.00
2017-10-04T05:38:10.243Z,172.00
2017-10-04T05:39:10.239Z,204.00
2017-10-04T05:40:10.224Z,244.00
2017-10-04T05:41:10.213Z,288.00
2017-10-04T05:42:10.204Z,352.00
2017-10-04T05:43:10.194Z,384.00
2017-10-04T05:44:10.185Z,408.00
2017-10-04T05:45:10.175Z,464.00
2017-10-04T05:46:10.172Z,512.00
2017-10-04T05:47:10.159Z,532.00
2017-10-04T05:48:10.146Z,548.00
2017-10-04T05:49:10.137Z,552.00
2017-10-04T05:50:10.127Z,556.00
2017-10-04T05:51:10.118Z,588.00
2017-10-04T05:52:10.108Z,640.00
2017-10-04T05:53:10.097Z,708.00
2017-10-04T05:54:10.088Z,776.00
2017-10-04T05:55:10.079Z,840.00
2017-10-04T05:56:10.069Z,916.00
2017-10-04T05:57:10.058Z,1016.00
2017-10-04T05:58:10.050Z,1108.00
2017-10-04T05:59:10.046Z,1180.00
2017-10-04T06:00:10.030Z,1220.00
2017-10-04T06:01:10.020Z,1300.00
2017-10-04T06:02:10.016Z,1396.00
2017-10-04T06:03:10.003Z,1496.00
2017-10-04T06:04:09.991Z,1608.00
2017-10-04T06:05:09.982Z,1716.00
2017-10-04T06:06:09.972Z,1804.00
2017-10-04T06:07:09.962Z,1900.00
2017-10-04T06:08:09.954Z,1964.00
2017-10-04T06:09:09.942Z,2012.00
2017-10-04T06:10:09.933Z,2088.00
2017-10-04T06:11:09.932Z,2168.00
2017-10-04T06:12:09.915Z,2268.00
2017-10-04T06:13:09.904Z,2380.00
2017-10-04T06:14:09.895Z,2516.00
2017-10-04T06:15:09.885Z,2676.00
2017-10-04T06:16:09.878Z,2876.00
2017-10-04T06:17:09.870Z,3116.00
2017-10-04T06:18:09.860Z,3344.00
2017-10-04T06:19:09.847Z,3556.00
2017-10-04T06:20:09.836Z,3704.00
2017-10-04T06:21:09.830Z,3832.00
2017-10-04T06:22:09.817Z,3924.00
2017-10-04T06:23:09.808Z,3992.00
2017-10-04T06:24:09.799Z,4024.00
2017-10-04T06:25:09.787Z,4020.00
2017-10-04T06:26:09.778Z,4040.00
2017-10-04T06:27:09.768Z,4116.00
2017-10-04T06:28:09.759Z,4168.00
2017-10-04T06:29:09.751Z,4184.00
2017-10-04T06:30:09.741Z,4168.00
2017-10-04T06:31:09.731Z,4116.00
2017-10-04T06:32:09.721Z,4004.00
2017-10-04T06:33:09.711Z,4064.00
2017-10-04T06:34:09.703Z,4248.00
2017-10-04T06:35:09.692Z,4580.00
2017-10-04T06:36:09.685Z,4908.00
2017-10-04T06:37:09.672Z,5136.00
2017-10-04T06:38:09.663Z,5244.00
2017-10-04T06:39:09.652Z,5272.00
2017-10-04T06:40:09.645Z,5296.00
2017-10-04T06:41:09.633Z,5372.00
2017-10-04T06:42:09.638Z,5452.00
2017-10-04T06:43:09.616Z,5640.00
2017-10-04T06:44:09.608Z,5780.00
2017-10-04T06:45:09.596Z,5860.00
2017-10-04T06:46:09.586Z,5840.00
2017-10-04T06:47:09.582Z,5772.00
2017-10-04T06:48:09.572Z,5696.00
2017-10-04T06:49:09.559Z,5736.00
2017-10-04T06:50:09.551Z,5800.00
2017-10-04T06:51:09.545Z,5988.00
2017-10-04T06:52:09.531Z,6344.00
2017-10-04T06:53:09.522Z,6916.00
2017-10-04T06:54:09.512Z,7564.00
2017-10-04T06:55:09.503Z,8112.00
2017-10-04T06:56:09.494Z,8168.00
2017-10-04T06:57:09.485Z,8068.00
2017-10-04T06:58:09.475Z,8368.00
2017-10-04T06:59:09.465Z,8328.00
2017-10-04T07:00:09.458Z,8376.00
2017-10-04T07:01:09.455Z,8412.00
2017-10-04T07:02:09.438Z,8328.00
2017-10-04T07:03:09.428Z,8120.00
2017-10-04T07:04:09.418Z,7764.00
2017-10-04T07:05:09.409Z,7292.00
2017-10-04T07:06:09.420Z,7308.00
2017-10-04T07:07:09.392Z,7344.00
2017-10-04T07:08:09.381Z,7460.00
2017-10-04T07:09:09.373Z,7260.00
2017-10-04T07:10:09.364Z,7036.00
2017-10-04T07:11:09.354Z,6804.00
2017-10-04T07:12:09.349Z,6528.00
2017-10-04T07:13:09.335Z,6584.00
2017-10-04T07:14:09.328Z,6876.00
2017-10-04T07:15:09.324Z,6964.00
2017-10-04T07:16:09.311Z,6916.00
2017-10-04T07:17:09.301Z,6680.00
2017-10-04T07:18:09.292Z,6448.00
2017-10-04T07:19:09.283Z,6528.00
2017-10-04T07:20:09.281Z,6908.00
2017-10-04T07:21:09.265Z,7260.00
2017-10-04T07:22:09.259Z,7748.00
2017-10-04T07:23:09.248Z,8300.00
2017-10-04T07:24:09.240Z,8816.00
2017-10-04T07:25:09.229Z,9016.00
2017-10-04T07:26:09.220Z,8968.00
2017-10-04T07:27:09.212Z,8868.00
2017-10-04T07:28:09.204Z,8808.00
2017-10-04T07:29:09.202Z,8788.00
2017-10-04T07:30:09.184Z,8996.00
2017-10-04T07:31:09.175Z,9556.00
2017-10-04T07:32:09.167Z,9828.00
2017-10-04T07:33:09.160Z,10120.00
2017-10-04T07:34:09.151Z,10088.00
2017-10-04T07:35:09.142Z,9784.00
2017-10-04T07:36:09.135Z,9448.00
2017-10-04T07:37:09.123Z,9188.00
2017-10-04T07:38:09.117Z,8960.00
2017-10-04T07:39:09.109Z,8628.00
2017-10-04T07:40:09.101Z,8252.00
2017-10-04T07:41:09.090Z,7936.00
2017-10-04T07:42:09.081Z,7744.00
2017-10-04T07:43:09.073Z,7720.00
2017-10-04T07:44:09.065Z,7812.00
2017-10-04T07:45:09.055Z,7896.00
2017-10-04T07:46:09.052Z,7856.00
2017-10-04T07:47:09.039Z,7644.00
2017-10-04T07:48:09.031Z,7372.00
2017-10-04T07:49:09.021Z,7200.00
2017-10-04T07:50:09.015Z,7264.00
2017-10-04T07:51:09.005Z,7480.00
2017-10-04T07:52:09.001Z,7744.00
2017-10-04T07:53:08.988Z,8012.00
2017-10-04T07:54:08.981Z,8196.00
2017-10-04T07:55:08.974Z,8280.00
2017-10-04T07:56:08.973Z,8268.00
2017-10-04T07:57:08.956Z,8180.00
2017-10-04T07:58:08.945Z,8176.00
2017-10-04T07:59:08.938Z,8252.00
2017-10-04T08:00:08.930Z,8388.00
2017-10-04T08:01:08.919Z,8376.00
2017-10-04T08:02:08.924Z,8360.00
2017-10-04T08:03:08.906Z,8356.00
2017-10-04T08:04:08.897Z,8728.00
2017-10-04T08:05:08.889Z,9076.00
2017-10-04T08:06:08.879Z,9496.00
2017-10-04T08:07:08.872Z,9876.00
2017-10-04T08:08:08.884Z,10156.00
2017-10-04T08:09:08.858Z,10036.00
2017-10-04T08:10:08.850Z,9720.00
2017-10-04T08:11:08.854Z,9528.00
2017-10-04T08:12:08.830Z,9312.00
2017-10-04T08:13:08.822Z,9136.00
2017-10-04T08:14:08.812Z,9000.00
2017-10-04T08:15:08.805Z,9008.00
2017-10-04T08:16:08.804Z,9212.00
2017-10-04T08:17:08.789Z,9592.00
2017-10-04T08:18:08.798Z,9928.00
2017-10-04T08:19:08.782Z,10144.00
2017-10-04T08:20:08.768Z,10312.00
2017-10-04T08:21:08.774Z,10660.00
2017-10-04T08:22:08.754Z,11304.00
2017-10-04T08:23:08.751Z,12072.00
2017-10-04T08:24:08.738Z,12512.00
2017-10-04T08:25:08.723Z,12544.00
2017-10-04T08:26:08.722Z,12172.00
2017-10-04T08:27:08.709Z,11700.00
2017-10-04T08:28:08.739Z,11192.00
2017-10-04T08:29:08.699Z,10920.00
2017-10-04T08:30:08.696Z,10688.00
2017-10-04T08:31:08.687Z,10600.00
2017-10-04T08:32:08.707Z,10456.00
2017-10-04T08:33:08.658Z,10308.00
2017-10-04T08:34:08.658Z,10468.00
2017-10-04T08:35:08.662Z,10668.00
2017-10-04T08:36:08.639Z,11276.00
2017-10-04T08:37:08.631Z,12500.00
2017-10-04T08:38:08.655Z,13072.00
2017-10-04T08:39:08.630Z,12924.00
2017-10-04T08:40:08.603Z,14576.00
2017-10-04T08:41:08.593Z,14796.00
2017-10-04T08:42:08.589Z,23008.00
2017-10-04T08:43:08.581Z,31200.00
2017-10-04T08:44:08.574Z,19872.00
2017-10-04T08:45:08.563Z,20800.00
2017-10-04T08:46:08.555Z,27296.00
2017-10-04T08:47:08.551Z,24672.00
2017-10-04T08:48:08.543Z,19040.00
2017-10-04T08:49:08.532Z,13136.00
2017-10-04T08:50:08.525Z,11404.00
2017-10-04T08:51:08.518Z,14380.00
2017-10-04T08:52:08.510Z,18976.00
2017-10-04T08:53:08.501Z,21632.00
2017-10-04T08:54:08.494Z,23264.00
2017-10-04T08:55:08.487Z,21472.00
2017-10-04T08:56:08.481Z,16960.00
2017-10-04T08:57:13.295Z,15324.00
2017-10-04T08:58:11.682Z,12868.00
2017-10-04T08:59:08.460Z,14828.00
2017-10-04T09:00:08.461Z,22368.00
2017-10-04T09:01:08.474Z,33120.00
2017-10-04T09:02:08.445Z,32672.00
2017-10-04T09:03:08.435Z,27392.00
2017-10-04T09:04:08.439Z,20416.00
2017-10-04T09:05:08.426Z,19488.00
2017-10-04T09:06:08.411Z,18592.00
2017-10-04T09:07:08.407Z,16040.00
2017-10-04T09:08:08.395Z,13916.00
2017-10-04T09:09:08.387Z,14060.00
2017-10-04T09:10:08.398Z,14380.00
2017-10-04T09:11:08.376Z,12208.00
2017-10-04T09:12:08.369Z,10844.00
2017-10-04T09:13:08.362Z,10016.00
2017-10-04T09:14:08.363Z,7640.00
2017-10-04T09:15:08.349Z,6928.00
2017-10-04T09:16:08.342Z,9320.00
2017-10-04T09:17:08.337Z,10720.00
2017-10-04T09:18:08.328Z,9844.00
2017-10-04T09:19:08.321Z,7576.00
2017-10-04T09:20:08.315Z,7580.00
2017-10-04T09:21:08.307Z,5016.00
2017-10-04T09:22:08.300Z,3956.00
2017-10-04T09:23:08.293Z,4424.00
2017-10-04T09:24:08.287Z,4052.00
2017-10-04T09:25:08.278Z,4196.00
2017-10-04T09:26:08.272Z,4420.00
2017-10-04T09:27:08.267Z,4916.00
2017-10-04T09:28:08.261Z,6024.00
2017-10-04T09:29:08.251Z,7352.00
2017-10-04T09:30:08.247Z,7268.00
2017-10-04T09:31:08.237Z,7948.00
2017-10-04T09:32:08.231Z,9168.00
2017-10-04T09:33:08.227Z,11504.00
2017-10-04T09:34:08.215Z,13484.00
2017-10-04T09:35:08.209Z,14312.00
2017-10-04T09:36:08.201Z,15084.00
2017-10-04T09:37:08.208Z,14648.00
2017-10-04T09:38:08.187Z,13004.00
2017-10-04T09:39:08.179Z,11800.00
2017-10-04T09:40:08.172Z,11756.00
2017-10-04T09:41:08.165Z,11728.00
2017-10-04T09:42:08.158Z,12368.00
2017-10-04T09:43:08.150Z,11188.00
2017-10-04T09:44:08.146Z,10856.00
2017-10-04T09:45:08.134Z,12192.00
2017-10-04T09:46:08.128Z,14196.00
2017-10-04T09:47:08.121Z,16216.00
2017-10-04T09:48:08.117Z,17472.00
2017-10-04T09:49:08.107Z,18112.00
2017-10-04T09:50:08.100Z,17728.00
2017-10-04T09:51:08.095Z,17120.00
2017-10-04T09:52:08.085Z,16200.00
2017-10-04T09:53:08.080Z,15968.00
2017-10-04T09:54:08.087Z,15556.00
2017-10-04T09:55:08.064Z,15012.00
2017-10-04T09:56:08.067Z,14592.00
2017-10-04T09:57:08.050Z,14968.00
2017-10-04T09:58:08.043Z,16240.00
2017-10-04T09:59:08.037Z,16088.00
2017-10-04T10:00:08.035Z,17504.00
2017-10-04T10:01:08.024Z,16696.00
2017-10-04T10:02:08.016Z,16960.00
2017-10-04T10:03:08.011Z,15580.00
2017-10-04T10:04:08.004Z,13680.00
2017-10-04T10:05:08.007Z,11216.00
2017-10-04T10:06:08.555Z,10376.00
2017-10-04T10:07:08.483Z,9764.00
2017-10-04T10:08:07.975Z,10140.00
2017-10-04T10:09:07.967Z,10280.00
2017-10-04T10:10:07.967Z,8600.00
2017-10-04T10:11:07.955Z,8152.00
2017-10-04T10:12:07.949Z,7396.00
2017-10-04T10:13:07.942Z,6456.00
2017-10-04T10:14:07.931Z,6312.00
2017-10-04T10:15:07.926Z,6112.00
2017-10-04T10:16:07.919Z,6692.00
2017-10-04T10:17:07.914Z,6204.00
2017-10-04T10:18:07.906Z,5628.00
2017-10-04T10:19:07.896Z,6036.00
2017-10-04T10:20:07.889Z,6088.00
2017-10-04T10:21:07.883Z,7784.00
2017-10-04T10:22:07.876Z,9132.00
2017-10-04T10:23:07.868Z,9324.00
2017-10-04T10:24:07.860Z,9720.00
2017-10-04T10:25:07.853Z,11364.00
2017-10-04T10:26:07.848Z,10744.00
2017-10-04T10:27:07.841Z,10848.00
2017-10-04T10:28:07.844Z,11260.00
2017-10-04T10:29:07.824Z,10456.00
2017-10-04T10:30:07.818Z,11248.00
2017-10-04T10:31:07.810Z,14368.00
2017-10-04T10:32:07.806Z,15060.00
2017-10-04T10:33:07.796Z,15096.00
2017-10-04T10:34:07.787Z,15212.00
2017-10-04T10:35:07.782Z,12476.00
2017-10-04T10:36:07.774Z,11464.00
2017-10-04T10:37:07.765Z,12844.00
2017-10-04T10:38:07.759Z,12452.00
2017-10-04T10:39:07.752Z,13228.00
2017-10-04T10:40:07.747Z,11388.00
2017-10-04T10:41:07.738Z,8000.00
2017-10-04T10:42:07.731Z,8276.00
2017-10-04T10:43:07.723Z,8716.00
2017-10-04T10:44:07.722Z,6996.00
2017-10-04T10:45:07.709Z,6624.00
2017-10-04T10:46:07.706Z,5300.00
2017-10-04T10:47:07.694Z,6220.00
2017-10-04T10:48:07.732Z,9168.00
2017-10-04T10:49:07.684Z,14176.00
2017-10-04T10:50:07.674Z,18496.00
2017-10-04T10:51:07.692Z,26624.00
2017-10-04T10:52:07.663Z,30496.00
2017-10-04T10:53:07.654Z,24512.00
2017-10-04T10:54:07.645Z,28704.00
2017-10-04T10:55:07.641Z,26208.00
2017-10-04T10:56:07.630Z,16348.00
2017-10-04T10:57:07.624Z,17052.00
2017-10-04T10:58:07.616Z,16700.00
2017-10-04T10:59:07.622Z,17632.00
2017-10-04T11:00:07.604Z,14640.00
2017-10-04T11:01:07.600Z,15696.00
2017-10-04T11:02:07.597Z,20448.00
2017-10-04T11:03:07.590Z,19712.00
2017-10-04T11:04:07.578Z,13760.00
2017-10-04T11:05:07.571Z,11624.00
2017-10-04T11:06:07.570Z,14148.00
2017-10-04T11:07:07.559Z,15600.00
2017-10-04T11:08:07.550Z,15720.00
2017-10-04T11:09:07.551Z,12244.00
2017-10-04T11:10:07.538Z,11940.00
2017-10-04T11:11:07.531Z,13072.00
2017-10-04T11:12:07.524Z,13652.00
2017-10-04T11:13:07.517Z,13940.00
2017-10-04T11:14:07.515Z,13404.00
2017-10-04T11:15:07.507Z,13904.00
2017-10-04T11:16:07.498Z,15184.00
2017-10-04T11:17:07.493Z,26176.00
2017-10-04T11:18:07.486Z,35168.00
2017-10-04T11:19:07.478Z,33824.00
2017-10-04T11:20:07.472Z,32832.00
2017-10-04T11:21:07.464Z,25408.00
2017-10-04T11:22:07.461Z,17536.00
2017-10-04T11:23:07.453Z,16836.00
2017-10-04T11:24:07.451Z,17376.00
2017-10-04T11:25:07.440Z,15128.00
2017-10-04T11:26:07.434Z,15040.00
2017-10-04T11:27:07.429Z,15236.00
2017-10-04T11:28:07.424Z,19648.00
2017-10-04T11:29:07.418Z,22880.00
2017-10-04T11:30:07.413Z,20832.00
2017-10-04T11:31:07.404Z,21376.00
2017-10-04T11:32:07.401Z,21152.00
2017-10-04T11:33:07.392Z,21120.00
2017-10-04T11:34:07.386Z,20448.00
2017-10-04T11:35:07.382Z,20256.00
2017-10-04T11:36:07.374Z,20256.00
2017-10-04T11:37:07.366Z,20320.00
2017-10-04T11:38:07.362Z,20448.00
2017-10-04T11:39:07.360Z,19744.00
2017-10-04T11:40:07.358Z,15748.00
2017-10-04T11:41:07.351Z,15712.00
2017-10-04T11:42:07.340Z,18976.00
2017-10-04T11:43:07.341Z,20800.00
2017-10-04T11:44:07.327Z,19840.00
2017-10-04T11:45:07.322Z,19552.00
2017-10-04T11:46:07.315Z,20768.00
2017-10-04T11:47:07.309Z,20832.00
2017-10-04T11:48:07.306Z,19552.00
2017-10-04T11:49:07.297Z,17280.00
2017-10-04T11:50:07.293Z,16200.00
2017-10-04T11:51:07.287Z,15420.00
2017-10-04T11:52:07.281Z,15420.00
2017-10-04T11:53:07.274Z,16036.00
2017-10-04T11:54:07.270Z,15124.00
2017-10-04T11:55:07.263Z,13628.00
2017-10-04T11:56:07.256Z,13612.00
2017-10-04T11:57:07.249Z,13812.00
2017-10-04T11:58:07.245Z,13304.00
2017-10-04T11:59:07.261Z,12060.00
2017-10-04T12:00:07.239Z,9756.00
2017-10-04T12:01:07.233Z,9108.00
2017-10-04T12:02:07.227Z,11080.00
2017-10-04T12:03:07.215Z,10380.00
2017-10-04T12:04:07.212Z,9640.00
2017-10-04T12:05:07.203Z,9080.00
2017-10-04T12:06:07.196Z,8064.00
2017-10-04T12:07:07.191Z,6664.00
2017-10-04T12:08:07.184Z,6812.00
2017-10-04T12:09:07.178Z,6712.00
2017-10-04T12:10:07.173Z,6048.00
2017-10-04T12:11:07.165Z,6708.00
2017-10-04T12:12:07.164Z,8204.00
2017-10-04T12:13:07.153Z,8072.00
2017-10-04T12:14:07.155Z,6384.00
2017-10-04T12:15:07.139Z,5900.00
2017-10-04T12:16:07.136Z,5244.00
2017-10-04T12:17:07.126Z,4808.00
2017-10-04T12:18:07.126Z,5192.00
2017-10-04T12:19:07.113Z,7328.00
2017-10-04T12:20:07.107Z,7232.00
2017-10-04T12:21:07.101Z,7016.00
2017-10-04T12:22:07.094Z,6868.00
2017-10-04T12:23:07.089Z,5616.00
2017-10-04T12:24:07.079Z,6592.00
2017-10-04T12:25:07.072Z,8476.00
2017-10-04T12:26:07.066Z,9236.00
2017-10-04T12:27:07.062Z,9680.00
2017-10-04T12:28:07.053Z,9708.00
2017-10-04T12:29:07.047Z,10492.00
2017-10-04T12:30:07.043Z,11636.00